Grady, Alabama
Current Conditions -  °F | °C
As of 8:53 PM on Saturday 22 Nov 2014 (Local Time) from KTOI Reporting Station
Overcast Overcast  
Wind Chill: 58°   Ceiling: 1700
Heat Index: 58°   Visibility: 10mi
Dew Point: 53°   Wind: 7mph
Humidity: 84%   Direction: 80°E
Pressure: 30.14"   Gusts: NA
Location:  32°N, 86.2°W
Report Text: KTOI 230253Z AUTO 08006KT 10SM OVC017 14/12 A3014 RMK AO2 RAE02 SLP204 P0000 60000 T01440117 58014
Loading
Personal Weather Stations






























Interactive Weather Map New forecast layout! Learn more

10-Day Weather Forecast

Advertisements
Track Severe Weather on mobile